Time;durP1;ratioP1;P1;durP2;ratioP2;P2;SDS_P1;SDS_P2;PMS_P1;PMS_P2;Temp;Humidity;BMP_temperature;BMP_pressure;BME280_temperature;BME280_humidity;BME280_pressure;Samples;Min_cycle;Max_cycle;Signal;HPM_P1;HPM_P2
2022/10/25 00:00:52;;;;;;;24.50;7.43;;;;;;;15.38;74.22;95317.66;5051356;28;20458;-77
2022/10/25 00:03:19;;;;;;;15.37;9.03;;;;;;;15.35;74.72;95313.47;5050958;28;20820;-77
2022/10/25 00:05:46;;;;;;;19.40;8.40;;;;;;;15.36;74.33;95319.59;5050978;28;20442;-76
2022/10/25 00:08:13;;;;;;;21.00;8.70;;;;;;;15.26;74.65;95318.81;5050799;28;20469;-76
2022/10/25 00:10:41;;;;;;;24.77;9.33;;;;;;;15.13;74.80;95321.81;5050778;28;20441;-76
2022/10/25 00:13:08;;;;;;;20.90;8.73;;;;;;;15.01;75.34;95321.16;5050751;28;20446;-76
2022/10/25 00:15:34;;;;;;;30.57;10.80;;;;;;;14.93;75.95;95326.34;5050781;28;20456;-76
2022/10/25 00:18:01;;;;;;;15.47;9.80;;;;;;;14.71;76.87;95322.25;5050641;28;20453;-76
2022/10/25 00:20:28;;;;;;;21.43;8.80;;;;;;;14.60;77.14;95313.69;5050653;28;21025;-76
2022/10/25 00:22:55;;;;;;;20.33;9.13;;;;;;;14.58;77.13;95316.47;5050633;28;20439;-76
2022/10/25 00:25:22;;;;;;;24.80;10.10;;;;;;;14.54;77.57;95315.94;5050626;28;20434;-76
2022/10/25 00:27:50;;;;;;;25.53;8.60;;;;;;;14.44;78.11;95325.69;5081660;28;20941;-76
2022/10/25 00:30:17;;;;;;;25.20;8.70;;;;;;;14.42;78.42;95317.03;5077799;28;20500;-76
2022/10/25 00:32:43;;;;;;;25.07;9.90;;;;;;;14.41;78.49;95318.00;5113645;28;20439;-76
2022/10/25 00:35:10;;;;;;;16.90;7.70;;;;;;;14.41;78.31;95325.09;5113338;28;20491;-76
2022/10/25 00:37:37;;;;;;;25.93;9.50;;;;;;;14.37;78.40;95329.00;5113327;28;20531;-76
2022/10/25 00:40:05;;;;;;;19.40;9.07;;;;;;;14.35;78.47;95323.03;5113239;28;20492;-76
2022/10/25 00:42:32;;;;;;;16.17;9.50;;;;;;;14.36;78.53;95322.06;5113738;28;20459;-77
2022/10/25 00:45:09;;;;;;;28.40;10.70;;;;;;;14.36;78.13;95327.34;5113552;28;20438;-76
2022/10/25 00:47:48;;;;;;;18.03;10.40;;;;;;;14.35;78.38;95315.94;5113230;28;20439;-77
2022/10/25 00:50:22;;;;;;;20.43;9.60;;;;;;;14.34;78.70;95310.81;5112918;28;20848;-77
2022/10/25 00:52:53;;;;;;;19.00;7.97;;;;;;;14.36;79.01;95316.78;5112378;28;20477;-76
2022/10/25 00:55:21;;;;;;;16.93;9.90;;;;;;;14.32;78.56;95310.97;5113057;28;20552;-76
2022/10/25 00:57:55;;;;;;;25.03;9.80;;;;;;;14.33;78.77;95309.16;5112812;28;20446;-77
2022/10/25 01:00:23;;;;;;;12.50;8.00;;;;;;;14.32;78.77;95313.59;5112897;28;20447;-76
2022/10/25 01:02:51;;;;;;;24.50;9.40;;;;;;;14.34;78.85;95305.53;5112720;28;20455;-77
2022/10/25 01:05:18;;;;;;;28.90;8.40;;;;;;;14.27;78.82;95314.03;5113021;28;20582;-76
2022/10/25 01:07:46;;;;;;;17.97;7.90;;;;;;;14.26;79.58;95306.25;5112798;28;20469;-77
2022/10/25 01:10:13;;;;;;;19.73;7.80;;;;;;;14.26;78.98;95300.97;5112966;28;20538;-76
2022/10/25 01:12:40;;;;;;;21.67;8.13;;;;;;;14.26;79.64;95298.34;5112708;28;20867;-76
2022/10/25 01:15:08;;;;;;;21.43;8.70;;;;;;;14.29;79.38;95305.13;5112343;28;20489;-77
2022/10/25 01:17:46;;;;;;;16.93;8.10;;;;;;;14.32;79.14;95297.75;5060140;28;20450;-77
2022/10/25 01:20:40;;;;;;;15.63;7.07;;;;;;;14.34;78.58;95298.44;5112523;28;20459;-77
2022/10/25 01:23:20;;;;;;;13.20;6.93;;;;;;;14.33;78.72;95290.66;5112588;28;20496;-76
2022/10/25 01:26:10;;;;;;;20.10;7.60;;;;;;;14.30;79.14;95288.31;5112296;28;20446;-76
2022/10/25 01:28:49;;;;;;;26.83;8.23;;;;;;;14.27;78.98;95292.06;5112540;28;20447;-76
2022/10/25 01:31:31;;;;;;;16.20;6.80;;;;;;;14.29;78.97;95302.50;5112592;28;20443;-77
2022/10/25 01:34:05;;;;;;;18.97;7.60;;;;;;;14.29;79.01;95289.28;5112404;28;20847;-77
2022/10/25 01:36:42;;;;;;;12.57;7.80;;;;;;;14.30;79.01;95288.31;5059686;28;20998;-76
2022/10/25 01:39:12;;;;;;;21.30;7.60;;;;;;;14.32;79.13;95291.66;5112238;28;20533;-77
2022/10/25 01:41:50;;;;;;;13.13;8.00;;;;;;;14.34;78.75;95290.53;5112124;28;20522;-77
2022/10/25 01:44:29;;;;;;;15.13;7.43;;;;;;;14.33;78.54;95288.84;5059505;28;20450;-77
2022/10/25 01:47:02;;;;;;;14.03;7.00;;;;;;;14.34;78.70;95287.88;5112826;28;20451;-77
2022/10/25 01:49:38;;;;;;;12.80;7.10;;;;;;;14.32;78.58;95292.47;5112329;28;20439;-77
2022/10/25 01:52:04;;;;;;;22.70;8.67;;;;;;;14.33;78.41;95288.84;5111928;28;20508;-77
2022/10/25 01:54:31;;;;;;;20.40;8.13;;;;;;;14.29;77.94;95290.13;5112484;28;20833;-76
2022/10/25 01:57:09;;;;;;;16.57;8.47;;;;;;;14.18;77.94;95290.31;5112297;28;20444;-76
2022/10/25 02:00:02;;;;;;;16.23;7.83;;;;;;;14.06;77.95;95289.59;5112407;28;20441;-76
2022/10/25 02:02:36;;;;;;;20.13;7.90;;;;;;;13.93;78.34;95292.56;5111907;28;20442;-76
2022/10/25 02:05:14;;;;;;;15.67;6.43;;;;;;;13.88;79.16;95293.97;5115303;28;20446;-77
2022/10/25 02:07:43;;;;;;;17.20;7.23;;;;;;;13.85;79.59;95294.22;5116388;28;20439;-77
2022/10/25 02:10:16;;;;;;;23.13;8.17;;;;;;;13.82;79.79;95281.31;5116240;28;20450;-76
2022/10/25 02:12:52;;;;;;;19.60;7.60;;;;;;;13.77;80.24;95284.38;5115940;28;20447;-76
2022/10/25 02:15:26;;;;;;;24.17;8.43;;;;;;;13.78;80.32;95280.75;5116487;28;20474;-76
2022/10/25 02:17:58;;;;;;;21.13;10.50;;;;;;;13.77;80.45;95283.53;5115998;28;20438;-77
2022/10/25 02:20:28;;;;;;;13.57;7.50;;;;;;;13.80;80.63;95288.53;5116272;28;20446;-77
2022/10/25 02:22:57;;;;;;;18.43;6.73;;;;;;;13.82;80.76;95281.31;5116007;28;20810;-76
2022/10/25 02:25:24;;;;;;;26.57;7.83;;;;;;;13.82;81.10;95281.31;5115675;28;20488;-76
2022/10/25 02:27:54;;;;;;;19.03;7.17;;;;;;;13.84;81.11;95282.00;5115876;28;20795;-76
2022/10/25 02:30:21;;;;;;;14.17;6.80;;;;;;;13.86;81.02;95274.78;5115786;28;20493;-76
2022/10/25 02:32:48;;;;;;;17.87;8.97;;;;;;;13.84;81.03;95280.19;5116077;28;20447;-77
2022/10/25 02:35:18;;;;;;;14.90;6.93;;;;;;;13.83;81.21;95275.06;5115516;28;20490;-77
2022/10/25 02:37:45;;;;;;;16.70;8.10;;;;;;;13.80;81.69;95272.69;5115744;28;20463;-77
2022/10/25 02:40:12;;;;;;;15.07;7.23;;;;;;;13.77;81.72;95272.97;5115652;28;20447;-77
2022/10/25 02:42:39;;;;;;;10.67;7.13;;;;;;;13.79;81.63;95271.03;5115229;28;20439;-77
2022/10/25 02:45:07;;;;;;;13.90;6.57;;;;;;;13.79;81.54;95263.94;5115768;28;20439;-77
2022/10/25 02:47:34;;;;;;;15.43;7.23;;;;;;;13.81;81.50;95269.09;5115839;28;20846;-77
2022/10/25 02:50:01;;;;;;;13.63;7.60;;;;;;;13.81;81.50;95262.00;5115541;28;20446;-76
2022/10/25 02:52:30;;;;;;;26.40;7.07;;;;;;;13.80;81.05;95264.78;5115147;28;20888;-77
2022/10/25 02:54:56;;;;;;;14.90;8.10;;;;;;;13.83;81.19;95267.13;5115628;28;20905;-76
2022/10/25 02:57:24;;;;;;;29.73;7.60;;;;;;;13.85;81.01;95278.38;5115160;28;20500;-76
2022/10/25 02:59:50;;;;;;;17.53;7.10;;;;;;;13.85;80.95;95275.75;5115261;28;20503;-77
2022/10/25 03:02:17;;;;;;;14.43;7.73;;;;;;;13.84;81.12;95274.91;5078806;28;20496;-76
2022/10/25 03:04:44;;;;;;;29.07;8.00;;;;;;;13.70;80.64;95279.78;5115400;28;20508;-76
2022/10/25 03:07:11;;;;;;;10.30;7.20;;;;;;;13.58;80.44;95279.91;5115104;28;20446;-77
2022/10/25 03:09:39;;;;;;;32.37;8.80;;;;;;;13.29;80.89;95281.69;5115063;28;20458;-76
2022/10/25 03:12:07;;;;;;;22.00;9.63;;;;;;;13.10;81.87;95282.50;5115274;28;20789;-76
2022/10/25 03:14:34;;;;;;;22.33;9.83;;;;;;;13.02;82.33;95277.91;5114603;28;20817;-77
2022/10/25 03:17:00;;;;;;;21.30;9.60;;;;;;;12.95;82.40;95276.75;5114303;28;20933;-79
2022/10/25 03:19:27;;;;;;;24.97;10.43;;;;;;;12.92;83.87;95271.75;5078562;28;20446;-77
2022/10/25 03:21:54;;;;;;;14.20;9.47;;;;;;;12.90;83.32;95273.69;5099110;28;20957;-77
2022/10/25 03:24:21;;;;;;;18.37;11.20;;;;;;;12.93;83.73;95268.16;5114629;28;20446;-77
2022/10/25 03:26:49;;;;;;;15.60;9.30;;;;;;;12.88;83.83;95277.44;5100273;28;20451;-77
2022/10/25 03:29:15;;;;;;;22.43;10.27;;;;;;;12.90;84.13;95267.59;5094013;28;20504;-78
2022/10/25 03:31:42;;;;;;;21.63;10.03;;;;;;;12.93;83.96;95270.78;5094187;28;20520;-77
2022/10/25 03:34:09;;;;;;;19.83;9.00;;;;;;;12.90;84.47;95283.41;5094154;28;20447;-76
2022/10/25 03:36:36;;;;;;;27.33;9.13;;;;;;;12.85;84.31;95285.59;5094621;28;20432;-77
2022/10/25 03:39:02;;;;;;;19.40;10.03;;;;;;;12.87;85.27;95287.16;5094067;28;20444;-77
2022/10/25 03:41:29;;;;;;;26.40;9.63;;;;;;;12.90;84.93;95283.41;5094326;28;20447;-77
2022/10/25 03:43:57;;;;;;;34.37;10.10;;;;;;;12.91;84.63;95278.00;5094212;28;20526;-77
2022/10/25 03:46:24;;;;;;;28.30;10.37;;;;;;;12.88;84.67;95267.75;5094341;28;20441;-77
2022/10/25 03:48:51;;;;;;;23.83;9.00;;;;;;;12.95;84.45;95273.28;5094018;28;20487;-77
2022/10/25 03:51:18;;;;;;;16.37;9.53;;;;;;;12.93;83.34;95283.97;5109795;28;20481;-78
2022/10/25 03:53:44;;;;;;;21.93;9.40;;;;;;;12.87;83.88;95278.41;5110735;28;20483;-78
2022/10/25 03:56:11;;;;;;;18.80;8.70;;;;;;;12.82;82.79;95276.19;5104907;28;20484;-78
2022/10/25 03:58:38;;;;;;;14.43;8.37;;;;;;;12.82;83.40;95281.44;5102265;28;20515;-78
2022/10/25 04:01:08;;;;;;;14.80;9.20;;;;;;;12.82;84.05;95267.44;5114403;28;20861;-78
2022/10/25 04:03:35;;;;;;;19.23;8.90;;;;;;;12.85;83.76;95260.09;5114005;28;20968;-78
2022/10/25 04:06:02;;;;;;;21.23;8.60;;;;;;;12.86;84.17;95256.50;5114022;28;20461;-79
2022/10/25 04:08:29;;;;;;;19.67;7.80;;;;;;;12.85;83.68;95248.75;5114511;28;20447;-78
2022/10/25 04:10:56;;;;;;;27.10;9.13;;;;;;;12.77;84.42;95252.06;5114170;28;20853;-78
2022/10/25 04:13:23;;;;;;;24.57;8.73;;;;;;;12.83;84.61;95256.78;5114183;28;20443;-78
2022/10/25 04:15:52;;;;;;;23.50;8.47;;;;;;;12.84;84.05;95268.97;5114295;28;20482;-77
2022/10/25 04:18:21;;;;;;;13.33;7.17;;;;;;;12.81;84.83;95256.09;5114317;28;20439;-78
2022/10/25 04:20:47;;;;;;;24.10;7.67;;;;;;;12.82;84.81;95249.84;5113768;28;20450;-78
2022/10/25 04:23:14;;;;;;;31.37;9.73;;;;;;;12.84;85.51;95254.97;5113739;28;20845;-79
2022/10/25 04:25:41;;;;;;;20.80;8.70;;;;;;;12.81;85.85;95258.72;5113976;28;20809;-78
2022/10/25 04:28:08;;;;;;;12.93;7.90;;;;;;;12.81;85.26;95263.97;5115136;28;20453;-79
2022/10/25 04:30:35;;;;;;;27.30;9.60;;;;;;;12.59;85.19;95258.91;5113762;28;20509;-77
2022/10/25 04:33:01;;;;;;;21.43;9.50;;;;;;;12.38;85.97;95272.13;5113709;28;20461;-78
2022/10/25 04:35:29;;;;;;;39.07;12.70;;;;;;;12.37;85.83;95265.19;5113785;28;20481;-78
2022/10/25 04:37:57;;;;;;;31.60;10.30;;;;;;;12.00;87.36;95275.38;5113868;28;20545;-77
2022/10/25 04:40:24;;;;;;;18.53;10.37;;;;;;;12.02;88.05;95279.56;5112867;28;20435;-77
2022/10/25 04:42:50;;;;;;;32.77;10.70;;;;;;;11.77;88.62;95282.53;5113841;28;20503;-78
2022/10/25 04:45:17;;;;;;;21.50;10.60;;;;;;;11.86;88.22;95283.63;5114187;28;20481;-78
2022/10/25 04:47:44;;;;;;;22.20;10.33;;;;;;;11.74;88.71;95294.13;5113869;28;20446;-77
2022/10/25 04:50:11;;;;;;;31.27;12.50;;;;;;;11.79;88.31;95286.72;5114168;28;20512;-78
2022/10/25 04:52:39;;;;;;;32.33;12.67;;;;;;;11.90;87.32;95287.66;5113487;28;20474;-77
2022/10/25 04:55:06;;;;;;;29.73;13.33;;;;;;;11.95;87.39;95288.94;5113645;28;20493;-78
2022/10/25 04:57:33;;;;;;;38.20;12.57;;;;;;;12.01;88.41;95292.84;5113789;28;20448;-78
2022/10/25 05:00:00;;;;;;;34.00;13.90;;;;;;;12.13;87.83;95296.22;5113657;28;20446;-78
2022/10/25 05:02:26;;;;;;;28.87;11.60;;;;;;;12.21;88.26;95297.25;5113675;28;20778;-77
2022/10/25 05:04:53;;;;;;;28.07;12.50;;;;;;;12.33;88.07;95298.84;5113895;28;20519;-77
2022/10/25 05:07:21;;;;;;;20.50;12.07;;;;;;;12.47;86.59;95289.78;5113509;28;20446;-78
2022/10/25 05:09:49;;;;;;;25.87;10.50;;;;;;;12.65;86.03;95287.34;5113672;28;20440;-77
2022/10/25 05:12:16;;;;;;;26.20;11.90;;;;;;;12.85;85.15;95285.59;5113862;28;20512;-77
2022/10/25 05:14:43;;;;;;;27.93;10.83;;;;;;;13.14;85.42;95290.94;5061029;28;20451;-77
2022/10/25 05:17:09;;;;;;;31.33;11.17;;;;;;;13.48;83.26;95283.53;5061009;28;20440;-77
2022/10/25 05:19:36;;;;;;;28.77;10.57;;;;;;;13.90;81.77;95284.09;5113411;28;20450;-79
2022/10/25 05:22:03;;;;;;;21.40;10.43;;;;;;;14.39;79.91;95283.00;5110896;28;20462;-77
2022/10/25 05:24:30;;;;;;;24.27;10.07;;;;;;;14.94;78.07;95284.91;5111440;28;20516;-77
2022/10/25 05:26:58;;;;;;;31.97;10.60;;;;;;;15.44;74.98;95275.56;5077135;28;20447;-77
2022/10/25 05:29:25;;;;;;;35.00;12.87;;;;;;;16.00;73.13;95290.31;5112604;28;20861;-77
2022/10/25 05:31:51;;;;;;;27.63;9.63;;;;;;;16.40;70.47;95291.59;5113243;28;20445;-77
2022/10/25 05:34:18;;;;;;;24.83;9.90;;;;;;;16.66;69.04;95291.59;5113320;28;21037;-77
2022/10/25 05:36:45;;;;;;;23.40;9.00;;;;;;;16.86;67.60;95305.47;5112635;28;22154;-77
2022/10/25 05:39:12;;;;;;;22.70;9.93;;;;;;;16.93;66.97;95302.03;5103756;28;20455;-77
2022/10/25 05:41:38;;;;;;;27.73;10.17;;;;;;;17.05;67.13;95313.16;5107320;28;20454;-77
2022/10/25 05:44:07;;;;;;;25.20;9.53;;;;;;;17.32;66.40;95315.59;5112768;28;20812;-77
2022/10/25 05:46:34;;;;;;;18.13;9.47;;;;;;;17.49;74.99;95320.97;5073429;28;20443;-76
2022/10/25 05:49:00;;;;;;;36.57;10.93;;;;;;;17.70;66.96;95312.59;5092543;28;20923;-77
2022/10/25 05:51:29;;;;;;;24.03;9.57;;;;;;;17.90;65.11;95319.22;5100062;28;21050;-77
2022/10/25 05:53:58;;;;;;;22.30;11.40;;;;;;;18.14;63.74;95334.38;5104244;28;20489;-77
2022/10/25 05:56:27;;;;;;;24.13;12.90;;;;;;;18.26;62.97;95336.53;5098616;28;20479;-78
2022/10/25 05:58:55;;;;;;;56.63;22.93;;;;;;;18.32;61.78;95332.38;5113227;28;20447;-77
2022/10/25 06:01:26;;;;;;;43.07;21.97;;;;;;;18.26;62.02;95338.38;5092972;28;20456;-77
2022/10/25 06:03:54;;;;;;;49.50;20.23;;;;;;;18.31;62.45;95348.50;5111035;28;20526;-77
2022/10/25 06:06:21;;;;;;;48.57;24.83;;;;;;;18.46;61.74;95352.97;5097575;28;20957;-77
2022/10/25 06:08:48;;;;;;;49.30;25.70;;;;;;;18.68;61.35;95351.47;5091753;28;20505;-77
2022/10/25 06:11:16;;;;;;;56.17;24.03;;;;;;;18.86;60.88;95351.28;5111809;28;20444;-77
2022/10/25 06:13:43;;;;;;;48.10;21.40;;;;;;;18.91;59.65;95354.28;5112523;28;20492;-77
2022/10/25 06:16:12;;;;;;;36.50;20.50;;;;;;;18.80;60.11;95357.28;5111934;28;20894;-77
2022/10/25 06:18:40;;;;;;;35.03;18.20;;;;;;;18.47;61.41;95351.97;5112818;28;20949;-77
2022/10/25 06:21:09;;;;;;;36.57;19.60;;;;;;;18.39;62.25;95351.97;5112324;28;20443;-77
2022/10/25 06:23:36;;;;;;;37.33;15.80;;;;;;;18.38;62.89;95355.63;5112221;28;20854;-77
2022/10/25 06:26:12;;;;;;;31.10;15.30;;;;;;;18.39;63.74;95362.59;5112118;28;20439;-77
2022/10/25 06:29:00;;;;;;;30.87;13.10;;;;;;;18.45;63.60;95356.59;5112284;28;20580;-77
2022/10/25 06:31:28;;;;;;;26.73;12.80;;;;;;;18.40;63.43;95361.59;5111954;28;20828;-77
2022/10/25 06:33:56;;;;;;;28.20;12.00;;;;;;;18.47;63.20;95356.44;5111825;28;20918;-77
2022/10/25 06:36:25;;;;;;;22.57;11.97;;;;;;;18.56;63.31;95353.63;5112081;28;20481;-76
2022/10/25 06:38:52;;;;;;;33.77;11.60;;;;;;;18.75;63.76;95357.78;5112352;28;20922;-77
2022/10/25 06:41:21;;;;;;;30.70;11.57;;;;;;;18.94;62.97;95348.59;5111841;28;20458;-77
2022/10/25 06:43:48;;;;;;;22.50;11.47;;;;;;;19.12;61.85;95354.56;5112154;28;20470;-77
2022/10/25 06:46:20;;;;;;;24.17;8.60;;;;;;;19.09;61.31;95360.22;5111830;28;20492;-77
2022/10/25 06:48:47;;;;;;;45.60;11.03;;;;;;;18.95;61.42;95368.88;5111834;28;20435;-77
2022/10/25 06:51:15;;;;;;;20.10;10.90;;;;;;;18.74;62.61;95360.59;5113742;28;20499;-76
2022/10/25 06:53:42;;;;;;;22.53;9.30;;;;;;;18.65;63.89;95354.47;5115740;28;20499;-77
2022/10/25 06:56:11;;;;;;;35.83;11.80;;;;;;;18.75;64.01;95362.25;5115913;28;20478;-76
2022/10/25 06:58:38;;;;;;;34.37;12.47;;;;;;;18.87;63.60;95363.59;5115886;28;20450;-77
2022/10/25 07:01:07;;;;;;;25.63;11.57;;;;;;;18.90;63.19;95365.06;5115248;28;20446;-77
2022/10/25 07:03:34;;;;;;;27.23;13.27;;;;;;;18.36;65.02;95352.31;5115571;28;20446;-77
2022/10/25 07:06:02;;;;;;;35.50;13.07;;;;;;;18.39;65.24;95344.00;5115510;28;20442;-77
2022/10/25 07:08:30;;;;;;;22.70;10.57;;;;;;;18.40;64.97;95342.16;5115336;28;20475;-77
2022/10/25 07:10:57;;;;;;;30.40;13.03;;;;;;;18.38;65.68;95345.00;5115468;28;20439;-77
2022/10/25 07:13:24;;;;;;;22.43;11.73;;;;;;;18.39;66.26;95338.69;5115190;28;20447;-77
2022/10/25 07:15:51;;;;;;;28.13;12.43;;;;;;;18.40;66.35;95343.00;5115054;28;20479;-77
2022/10/25 07:18:18;;;;;;;33.23;11.60;;;;;;;18.46;66.43;95342.31;5115597;28;20461;-77
2022/10/25 07:20:47;;;;;;;36.03;12.77;;;;;;;18.51;65.13;95332.03;5115168;28;20496;-77
2022/10/25 07:23:14;;;;;;;28.57;11.10;;;;;;;18.52;64.89;95339.03;5115294;28;20485;-76
2022/10/25 07:25:43;;;;;;;29.33;10.63;;;;;;;18.50;65.34;95346.34;5115133;28;20543;-77
2022/10/25 07:28:11;;;;;;;26.93;12.20;;;;;;;18.50;65.68;95330.38;5115003;28;20450;-77
2022/10/25 07:30:40;;;;;;;28.80;12.40;;;;;;;18.42;65.75;95324.22;5115297;28;20446;-77
2022/10/25 07:33:07;;;;;;;25.33;12.20;;;;;;;18.47;65.86;95328.03;5114774;28;20439;-77
2022/10/25 07:35:34;;;;;;;32.77;11.83;;;;;;;18.40;65.57;95324.41;5114639;28;20487;-77
2022/10/25 07:38:00;;;;;;;27.27;10.20;;;;;;;18.44;65.14;95323.06;5114776;28;20515;-77
2022/10/25 07:40:27;;;;;;;29.00;10.93;;;;;;;18.46;65.76;95325.56;5114594;28;20997;-78
2022/10/25 07:42:55;;;;;;;31.30;12.13;;;;;;;18.26;65.96;95319.78;5114843;28;20481;-77
2022/10/25 07:45:23;;;;;;;29.27;10.23;;;;;;;18.34;66.21;95325.06;5062095;28;20957;-77
2022/10/25 07:47:51;;;;;;;30.83;12.33;;;;;;;18.23;68.14;95320.09;5114962;28;20438;-77
2022/10/25 07:50:18;;;;;;;29.20;11.90;;;;;;;18.23;67.82;95323.59;5078707;28;20859;-76
2022/10/25 07:52:45;;;;;;;29.20;11.20;;;;;;;18.12;67.94;95328.38;5114102;28;20467;-77
2022/10/25 07:55:12;;;;;;;28.90;11.00;;;;;;;18.09;68.55;95318.09;5114812;28;20466;-77
2022/10/25 07:57:39;;;;;;;30.80;10.47;;;;;;;18.26;67.42;95320.59;5114428;28;20486;-77
2022/10/25 08:00:09;;;;;;;30.23;10.93;;;;;;;18.37;67.79;95318.59;5114533;28;20956;-77
2022/10/25 08:02:36;;;;;;;20.57;10.90;;;;;;;18.50;68.09;95318.91;5078294;28;20426;-77
2022/10/25 08:05:03;;;;;;;25.20;11.20;;;;;;;18.46;67.83;95321.06;5114210;28;20443;-77
2022/10/25 08:07:30;;;;;;;31.13;10.97;;;;;;;18.63;67.55;95310.44;5061967;28;20527;-77
2022/10/25 08:09:56;;;;;;;39.73;11.80;;;;;;;18.60;66.18;95308.94;5061800;28;20832;-77
2022/10/25 08:12:23;;;;;;;43.70;10.17;;;;;;;18.68;66.02;95321.41;5114329;28;20497;-77
2022/10/25 08:14:50;;;;;;;28.33;11.00;;;;;;;18.87;66.13;95310.41;5114217;28;20504;-77
2022/10/25 08:17:18;;;;;;;22.50;9.60;;;;;;;19.07;65.59;95309.00;5061440;28;21012;-77
2022/10/25 08:19:45;;;;;;;31.93;11.63;;;;;;;19.17;64.51;95308.81;5114157;28;20511;-77
2022/10/25 08:22:11;;;;;;;28.30;9.50;;;;;;;19.35;63.86;95301.38;5113781;28;20829;-77
2022/10/25 08:24:38;;;;;;;21.80;10.00;;;;;;;19.52;64.09;95304.81;5094691;28;20443;-77
2022/10/25 08:27:05;;;;;;;35.20;11.40;;;;;;;19.68;62.79;95295.94;5113893;28;20801;-77
2022/10/25 08:29:32;;;;;;;33.20;11.43;;;;;;;19.89;62.54;95297.94;5113847;28;20525;-77
2022/10/25 08:31:59;;;;;;;25.47;10.90;;;;;;;20.14;61.76;95299.44;5113829;28;20500;-77
2022/10/25 08:34:28;;;;;;;28.93;11.30;;;;;;;20.38;61.54;95299.22;5060762;28;20488;-77
2022/10/25 08:36:54;;;;;;;34.77;10.60;;;;;;;20.60;60.51;95307.41;5113616;28;20482;-77
2022/10/25 08:39:21;;;;;;;30.77;13.10;;;;;;;20.67;60.91;95308.31;5113766;28;20446;-77
2022/10/25 08:41:52;;;;;;;26.63;13.37;;;;;;;20.73;60.56;95291.59;5113360;28;20446;-77
2022/10/25 08:44:32;;;;;;;46.60;12.10;;;;;;;20.77;58.78;95292.88;5113468;28;20567;-77
2022/10/25 08:47:02;;;;;;;27.37;10.70;;;;;;;20.86;59.18;95286.47;5113420;28;20470;-77
2022/10/25 08:49:38;;;;;;;27.37;11.63;;;;;;;20.92;58.13;95288.41;5113434;28;20511;-77
2022/10/25 08:52:07;;;;;;;31.37;11.53;;;;;;;20.94;58.04;95290.88;5113341;28;20482;-77
2022/10/25 08:54:37;;;;;;;23.20;10.03;;;;;;;20.96;57.71;95292.34;5113131;28;20448;-77
2022/10/25 08:57:10;;;;;;;29.50;10.43;;;;;;;21.06;57.93;95286.72;5113221;28;20475;-77
2022/10/25 08:59:41;;;;;;;24.13;10.57;;;;;;;21.20;56.90;95277.88;5113145;28;20933;-77
2022/10/25 09:02:17;;;;;;;20.53;9.30;;;;;;;21.36;56.32;95276.88;5060598;28;20922;-77
2022/10/25 09:04:45;;;;;;;26.27;9.60;;;;;;;21.46;55.00;95274.75;5113085;28;20455;-77
2022/10/25 09:07:29;;;;;;;27.37;9.80;;;;;;;21.54;54.88;95274.63;5113122;28;20454;-77
2022/10/25 09:10:02;;;;;;;29.60;9.57;;;;;;;21.71;53.88;95269.06;5112938;28;20446;-77
2022/10/25 09:12:37;;;;;;;21.00;9.60;;;;;;;21.82;54.64;95266.72;5113306;28;20442;-77
2022/10/25 09:15:13;;;;;;;28.70;9.57;;;;;;;21.86;54.24;95269.84;5112696;28;20453;-77
2022/10/25 09:17:48;;;;;;;32.37;9.47;;;;;;;21.89;54.12;95264.94;5093839;28;20550;-77
2022/10/25 09:20:20;;;;;;;32.40;11.37;;;;;;;21.91;53.77;95257.56;5112596;28;20454;-77
2022/10/25 09:22:49;;;;;;;17.13;10.67;;;;;;;21.98;54.16;95264.84;5112774;28;20949;-77
2022/10/25 09:25:30;;;;;;;21.93;9.30;;;;;;;21.94;54.08;95259.84;5112889;28;20527;-77
2022/10/25 09:28:02;;;;;;;27.57;10.27;;;;;;;21.97;54.19;95258.63;5112957;28;20480;-77
2022/10/25 09:30:34;;;;;;;31.20;9.97;;;;;;;21.92;54.42;95263.72;5112488;28;20938;-77
2022/10/25 09:33:04;;;;;;;33.80;9.97;;;;;;;21.90;54.00;95263.09;5112507;28;20435;-77
2022/10/25 09:35:41;;;;;;;33.07;11.40;;;;;;;21.90;54.83;95249.72;5112717;28;20963;-77
2022/10/25 09:38:14;;;;;;;25.30;9.40;;;;;;;21.96;54.29;95263.16;5112525;28;20478;-77
2022/10/25 09:40:45;;;;;;;29.87;9.60;;;;;;;21.95;53.98;95258.00;5112715;28;20447;-77
2022/10/25 09:43:17;;;;;;;19.83;9.30;;;;;;;21.94;54.95;95253.66;5076283;28;20430;-77
2022/10/25 09:45:47;;;;;;;24.87;9.47;;;;;;;21.80;53.41;95250.06;5112746;28;20447;-77
2022/10/25 09:48:22;;;;;;;22.47;9.13;;;;;;;21.63;53.34;95243.28;5112528;28;20983;-77
2022/10/25 09:50:55;;;;;;;30.63;9.90;;;;;;;21.61;53.49;95243.47;5112588;28;20455;-78
2022/10/25 09:53:22;;;;;;;22.77;9.70;;;;;;;21.45;54.23;95243.72;5112515;28;21000;-77
2022/10/25 09:55:52;;;;;;;28.07;9.10;;;;;;;21.55;54.53;95236.22;5112440;28;20447;-77
2022/10/25 09:58:22;;;;;;;23.50;9.73;;;;;;;21.54;53.88;95231.06;5112513;28;21006;-77
2022/10/25 10:00:50;;;;;;;27.57;9.73;;;;;;;21.51;54.63;95228.78;5112680;28;20439;-77
2022/10/25 10:03:18;;;;;;;42.60;10.60;;;;;;;21.68;54.27;95229.34;5112447;28;20480;-77
2022/10/25 10:05:48;;;;;;;44.87;12.13;;;;;;;21.75;53.87;95222.25;5059639;28;20438;-77
2022/10/25 10:08:16;;;;;;;30.53;11.70;;;;;;;21.79;53.51;95213.66;5112804;28;20503;-77
2022/10/25 10:10:46;;;;;;;30.60;9.93;;;;;;;21.85;54.23;95214.75;5059596;28;20950;-77
2022/10/25 10:13:18;;;;;;;37.33;11.83;;;;;;;21.95;54.34;95217.91;5112933;28;20447;-77
2022/10/25 10:15:51;;;;;;;53.07;11.90;;;;;;;22.02;53.94;95218.81;5112551;28;20500;-77
2022/10/25 10:18:26;;;;;;;30.53;11.20;;;;;;;22.00;52.77;95210.16;5112414;28;20482;-77
2022/10/25 10:21:00;;;;;;;30.73;11.80;;;;;;;22.03;52.52;95201.75;5112440;28;20442;-77
2022/10/25 10:23:30;;;;;;;32.03;11.20;;;;;;;22.00;52.55;95204.81;5112352;28;20501;-77
2022/10/25 10:26:01;;;;;;;37.17;11.53;;;;;;;21.98;53.03;95195.34;5115009;28;20885;-77
2022/10/25 10:28:28;;;;;;;24.27;10.83;;;;;;;21.96;52.71;95191.00;5116168;28;20443;-77
2022/10/25 10:30:58;;;;;;;21.50;10.97;;;;;;;21.98;52.63;95192.69;5116832;28;20464;-77
2022/10/25 10:33:31;;;;;;;33.93;11.60;;;;;;;21.98;52.13;95195.34;5115913;28;20845;-78
2022/10/25 10:36:25;;;;;;;28.73;11.23;;;;;;;21.89;52.78;95186.63;5116236;28;20938;-77
2022/10/25 10:38:54;;;;;;;40.83;12.50;;;;;;;21.85;53.14;95185.34;5116090;28;20453;-77
2022/10/25 10:41:24;;;;;;;37.47;11.47;;;;;;;21.81;53.34;95176.06;5115866;28;20450;-77
2022/10/25 10:43:52;;;;;;;24.53;10.83;;;;;;;21.92;52.91;95175.53;5115896;28;20449;-78
2022/10/25 10:46:23;;;;;;;36.90;10.27;;;;;;;21.96;52.52;95171.47;5116100;28;20941;-77
2022/10/25 10:48:55;;;;;;;25.77;12.60;;;;;;;21.88;52.67;95167.09;5116014;28;20454;-77
2022/10/25 10:51:36;;;;;;;40.07;11.40;;;;;;;21.92;52.41;95165.69;5116014;28;20446;-77
2022/10/25 10:54:25;;;;;;;28.20;11.20;;;;;;;21.89;52.47;95154.56;5116184;28;21018;-77
2022/10/25 10:56:57;;;;;;;29.53;11.20;;;;;;;22.06;52.04;95152.47;5115824;28;20486;-77
2022/10/25 10:59:35;;;;;;;37.33;11.37;;;;;;;22.16;52.43;95155.63;5115545;28;20474;-77
2022/10/25 11:02:16;;;;;;;21.13;10.80;;;;;;;22.22;51.22;95146.81;5115460;28;20471;-77
2022/10/25 11:04:48;;;;;;;30.50;11.17;;;;;;;22.32;51.99;95144.63;5115392;28;20504;-78
2022/10/25 11:07:24;;;;;;;29.30;11.20;;;;;;;22.39;50.67;95144.66;5115590;28;20482;-78
2022/10/25 11:09:52;;;;;;;29.80;10.43;;;;;;;22.46;50.21;95140.19;5115424;28;20453;-77
2022/10/25 11:12:19;;;;;;;29.63;11.03;;;;;;;22.47;50.49;95142.66;5062944;28;20793;-77
2022/10/25 11:14:45;;;;;;;28.90;9.53;;;;;;;22.53;50.13;95130.34;5115281;28;21003;-77
2022/10/25 11:17:19;;;;;;;30.23;11.20;;;;;;;22.58;49.37;95127.91;5096116;28;21004;-77
2022/10/25 11:20:07;;;;;;;37.03;11.07;;;;;;;22.69;48.78;95131.88;5064676;28;20439;-77
2022/10/25 11:22:48;;;;;;;34.53;10.03;;;;;;;22.78;48.33;95125.31;5115265;28;20495;-77
2022/10/25 11:25:28;;;;;;;24.83;10.00;;;;;;;22.90;48.38;95129.13;5115139;28;20446;-77
2022/10/25 11:28:15;;;;;;;23.33;8.93;;;;;;;22.98;48.67;95120.09;5115123;28;20439;-77
2022/10/25 11:30:54;;;;;;;30.63;10.53;;;;;;;23.00;48.48;95115.34;5032065;28;20937;-77
2022/10/25 11:33:46;;;;;;;23.83;10.23;;;;;;;23.02;47.37;95114.13;5032086;28;20442;-77